Time;durP1;ratioP1;P1;durP2;ratioP2;P2;SDS_P1;SDS_P2;PMS_P1;PMS_P2;Temp;Humidity;BMP_temperature;BMP_pressure;BME280_temperature;BME280_humidity;BME280_pressure;Samples;Min_cycle;Max_cycle;Signal;HPM_P1;HPM_P2
2023/07/02 00:02:12;;;;;;;9.63;6.05;;;;;13.30;93681.00;;;;7396765;19;20172;-75
2023/07/02 00:04:55;;;;;;;6.82;5.78;;;;;13.20;93670.00;;;;7399743;19;20172;-73
2023/07/02 00:07:31;;;;;;;6.57;5.88;;;;;13.30;93672.00;;;;7401033;19;20135;-74
2023/07/02 00:09:59;;;;;;;7.82;6.13;;;;;13.30;93678.00;;;;7400951;19;20151;-73
2023/07/02 00:12:27;;;;;;;8.68;6.05;;;;;13.30;93670.00;;;;7402577;19;20583;-74
2023/07/02 00:15:04;;;;;;;7.00;5.65;;;;;13.30;93664.00;;;;7402603;19;20164;-72
2023/07/02 00:17:39;;;;;;;9.18;5.97;;;;;13.30;93672.00;;;;7397497;19;20227;-74
2023/07/02 00:20:14;;;;;;;9.30;5.65;;;;;13.10;93671.00;;;;7401951;19;20117;-73
2023/07/02 00:22:49;;;;;;;5.95;5.45;;;;;13.10;93672.00;;;;7401178;19;20164;-73
2023/07/02 00:25:16;;;;;;;6.03;5.40;;;;;13.10;93674.00;;;;7400512;19;20147;-73
2023/07/02 00:27:51;;;;;;;8.77;5.60;;;;;13.00;93675.00;;;;7400647;19;20158;-76
2023/07/02 00:30:19;;;;;;;8.00;5.80;;;;;13.20;93671.00;;;;7402480;19;20133;-73
2023/07/02 00:32:53;;;;;;;7.45;5.70;;;;;13.10;93665.00;;;;7401384;19;20167;-72
2023/07/02 00:35:21;;;;;;;8.48;6.35;;;;;13.00;93663.00;;;;7400636;19;20219;-75
2023/07/02 00:37:55;;;;;;;8.07;5.97;;;;;13.10;93674.00;;;;7400208;19;20140;-72
2023/07/02 00:40:22;;;;;;;8.32;5.90;;;;;12.90;93664.00;;;;7400154;19;20158;-73
2023/07/02 00:42:57;;;;;;;8.63;5.97;;;;;12.90;93655.00;;;;7400054;19;20494;-73
2023/07/02 00:45:26;;;;;;;7.82;6.05;;;;;12.90;93659.00;;;;7400521;19;20220;-72
2023/07/02 00:48:00;;;;;;;18.02;5.97;;;;;12.80;93659.00;;;;7399549;19;20172;-74
2023/07/02 00:50:29;;;;;;;6.95;5.35;;;;;12.80;93659.00;;;;7399590;19;20133;-73
2023/07/02 00:53:04;;;;;;;7.78;5.55;;;;;12.80;93664.00;;;;7399473;19;20172;-73
2023/07/02 00:55:38;;;;;;;9.77;5.45;;;;;12.80;93657.00;;;;7399675;19;20133;-74
2023/07/02 00:58:15;;;;;;;7.47;5.95;;;;;12.70;93668.00;;;;7398745;19;20153;-73
2023/07/02 01:00:43;;;;;;;8.75;5.95;;;;;12.70;93677.00;;;;7392600;19;20151;-75
2023/07/02 01:03:32;;;;;;;6.93;6.20;;;;;12.80;93678.00;;;;7396511;19;20626;-72
2023/07/02 01:06:07;;;;;;;7.03;5.60;;;;;12.80;93678.00;;;;7398812;19;20200;-74
2023/07/02 01:08:41;;;;;;;8.80;5.85;;;;;12.90;93673.00;;;;7400440;19;20141;-74
2023/07/02 01:11:08;;;;;;;7.78;6.20;;;;;12.80;93674.00;;;;7399436;19;20151;-73
2023/07/02 01:13:44;;;;;;;6.43;5.40;;;;;12.80;93675.00;;;;7400329;19;20136;-73
2023/07/02 01:16:12;;;;;;;7.38;5.75;;;;;12.70;93670.00;;;;7398327;19;20140;-73
2023/07/02 01:18:40;;;;;;;8.82;6.25;;;;;12.70;93674.00;;;;7402106;19;20227;-74
2023/07/02 01:21:14;;;;;;;8.98;5.63;;;;;12.70;93666.00;;;;7401032;19;20141;-74
2023/07/02 01:23:48;;;;;;;10.05;5.32;;;;;12.70;93669.00;;;;7399883;19;20177;-74
2023/07/02 01:26:23;;;;;;;7.13;5.82;;;;;12.70;93672.00;;;;7397546;19;20138;-73
2023/07/02 01:28:51;;;;;;;7.55;5.75;;;;;12.70;93664.00;;;;7399920;19;20145;-72
2023/07/02 01:31:25;;;;;;;6.50;5.38;;;;;12.70;93663.00;;;;7400546;19;20213;-74
2023/07/02 01:33:59;;;;;;;6.60;5.90;;;;;12.70;93659.00;;;;7397824;19;20148;-75
2023/07/02 01:36:35;;;;;;;8.35;5.60;;;;;12.60;93656.00;;;;7399374;19;20140;-76
2023/07/02 01:39:03;;;;;;;6.68;5.50;;;;;12.60;93672.00;;;;7398455;19;20487;-74
2023/07/02 01:41:49;;;;;;;5.72;4.72;;;;;12.50;93665.00;;;;7398642;19;20633;-74
2023/07/02 01:44:24;;;;;;;13.77;4.78;;;;;12.50;93664.00;;;;7398574;19;20811;-73
2023/07/02 01:46:58;;;;;;;6.90;5.30;;;;;12.70;93668.00;;;;7400658;19;20607;-72
2023/07/02 01:49:26;;;;;;;7.45;5.30;;;;;12.80;93672.00;;;;7400160;19;20521;-74
2023/07/02 01:52:01;;;;;;;8.82;5.80;;;;;12.80;93664.00;;;;7398282;19;20157;-73
2023/07/02 01:54:29;;;;;;;7.65;5.88;;;;;12.90;93664.00;;;;7401919;19;20129;-74
2023/07/02 01:57:05;;;;;;;9.98;6.03;;;;;12.80;93664.00;;;;7398946;19;20644;-73
2023/07/02 01:59:33;;;;;;;6.63;5.28;;;;;12.90;93654.00;;;;7398933;19;20145;-74
2023/07/02 02:02:07;;;;;;;9.23;6.15;;;;;13.00;93654.00;;;;7398050;19;20186;-72
2023/07/02 02:04:43;;;;;;;6.55;5.85;;;;;13.10;93655.00;;;;7397301;19;20200;-73
2023/07/02 02:07:25;;;;;;;9.15;5.93;;;;;13.00;93657.00;;;;7399502;19;20176;-72
2023/07/02 02:10:01;;;;;;;7.43;5.20;;;;;13.00;93660.00;;;;7398894;19;20145;-74
2023/07/02 02:12:35;;;;;;;6.20;5.13;;;;;13.10;93670.00;;;;7399543;19;20129;-76
2023/07/02 02:15:13;;;;;;;11.70;5.20;;;;;13.10;93672.00;;;;7398647;19;20144;-75
2023/07/02 02:17:42;;;;;;;8.05;5.50;;;;;12.80;93663.00;;;;7396999;19;20220;-76
2023/07/02 02:20:16;;;;;;;8.38;5.30;;;;;12.80;93669.00;;;;7397757;19;20472;-75
2023/07/02 02:22:44;;;;;;;8.55;5.65;;;;;12.80;93675.00;;;;7397653;19;20227;-75
2023/07/02 02:25:18;;;;;;;9.30;5.40;;;;;12.80;93677.00;;;;7396802;19;20172;-76
2023/07/02 02:27:52;;;;;;;10.35;4.85;;;;;12.80;93690.00;;;;7396628;19;20141;-75
2023/07/02 02:30:20;;;;;;;8.50;5.40;;;;;12.80;93679.00;;;;7399482;19;20148;-77
2023/07/02 02:32:55;;;;;;;10.25;5.00;;;;;12.80;93687.00;;;;7402854;19;20135;-76
2023/07/02 02:35:23;;;;;;;8.45;5.25;;;;;12.70;93690.00;;;;7400133;19;20152;-76
2023/07/02 02:37:57;;;;;;;7.88;4.85;;;;;12.70;93696.00;;;;7398892;19;20604;-77
2023/07/02 02:40:31;;;;;;;8.05;5.03;;;;;12.50;93704.00;;;;7397975;19;20155;-76
2023/07/02 02:43:05;;;;;;;9.30;5.50;;;;;12.50;93693.00;;;;7397247;19;20489;-77
2023/07/02 02:45:33;;;;;;;8.05;5.78;;;;;12.50;93706.00;;;;7397571;19;20168;-78
2023/07/02 02:48:07;;;;;;;7.25;5.50;;;;;12.30;93691.00;;;;7398618;19;20159;-76
2023/07/02 02:50:35;;;;;;;9.02;4.65;;;;;12.40;93704.00;;;;7398519;19;20603;-78
2023/07/02 02:53:10;;;;;;;9.18;5.38;;;;;12.40;93699.00;;;;7396004;19;20140;-75
2023/07/02 02:55:45;;;;;;;16.33;5.68;;;;;12.30;93707.00;;;;7397044;19;20132;-77
2023/07/02 02:58:13;;;;;;;7.93;5.78;;;;;12.30;93699.00;;;;7394748;19;20148;-77
2023/07/02 03:00:48;;;;;;;7.72;5.15;;;;;12.30;93698.00;;;;7397073;19;20192;-76
2023/07/02 03:03:24;;;;;;;7.70;5.38;;;;;12.30;93707.00;;;;7397011;19;20256;-77
2023/07/02 03:05:58;;;;;;;7.90;5.38;;;;;12.20;93703.00;;;;7397317;19;20153;-76
2023/07/02 03:08:33;;;;;;;6.45;4.65;;;;;12.30;93704.00;;;;7396547;19;20153;-76
2023/07/02 03:11:07;;;;;;;9.90;5.68;;;;;12.40;93710.00;;;;7397502;19;20530;-76
2023/07/02 03:13:42;;;;;;;8.70;5.20;;;;;12.30;93707.00;;;;7402305;19;20133;-76
2023/07/02 03:16:10;;;;;;;9.82;6.13;;;;;12.30;93713.00;;;;7398644;19;20487;-75
2023/07/02 03:18:44;;;;;;;7.97;5.35;;;;;12.30;93704.00;;;;7394783;19;20503;-76
2023/07/02 03:21:12;;;;;;;6.57;5.18;;;;;12.20;93700.00;;;;7395972;19;20164;-77
2023/07/02 03:23:46;;;;;;;8.02;5.03;;;;;12.20;93712.00;;;;7396467;19;20140;-78
2023/07/02 03:26:14;;;;;;;8.77;6.10;;;;;12.10;93710.00;;;;7395406;19;20507;-76
2023/07/02 03:28:48;;;;;;;8.75;5.97;;;;;12.00;93716.00;;;;7396033;19;20143;-79
2023/07/02 03:31:22;;;;;;;10.45;5.40;;;;;12.00;93715.00;;;;7395778;19;20592;-77
2023/07/02 03:33:56;;;;;;;11.63;6.55;;;;;12.00;93724.00;;;;7396223;19;20129;-77
2023/07/02 03:36:30;;;;;;;10.27;6.20;;;;;11.80;93717.00;;;;7395817;19;20512;-74
2023/07/02 03:39:05;;;;;;;13.35;6.10;;;;;11.80;93723.00;;;;7396547;19;20219;-77
2023/07/02 03:41:40;;;;;;;9.88;5.95;;;;;11.90;93728.00;;;;7395672;19;20149;-76
2023/07/02 03:44:08;;;;;;;10.35;5.97;;;;;11.90;93727.00;;;;7395284;19;20517;-76
2023/07/02 03:46:42;;;;;;;12.77;6.32;;;;;11.90;93733.00;;;;7395307;19;20148;-73
2023/07/02 03:49:17;;;;;;;8.13;6.28;;;;;11.80;93731.00;;;;7396756;19;20145;-76
2023/07/02 03:51:52;;;;;;;10.57;5.70;;;;;11.90;93730.00;;;;7395346;19;20161;-73
2023/07/02 03:54:26;;;;;;;8.88;6.40;;;;;11.90;93728.00;;;;7394142;19;20167;-77
2023/07/02 03:57:00;;;;;;;8.80;6.10;;;;;11.90;93728.00;;;;7394055;19;20647;-78
2023/07/02 03:59:35;;;;;;;8.23;5.85;;;;;11.80;93736.00;;;;7394783;19;20611;-73
2023/07/02 04:02:09;;;;;;;11.15;6.53;;;;;11.90;93737.00;;;;7388661;19;20182;-75
2023/07/02 04:04:37;;;;;;;15.32;5.85;;;;;11.80;93735.00;;;;7395883;19;20208;-77
2023/07/02 04:07:11;;;;;;;8.93;6.15;;;;;12.00;93735.00;;;;7394382;19;20182;-75
2023/07/02 04:09:45;;;;;;;12.60;6.18;;;;;12.00;93735.00;;;;7393580;19;20493;-76
2023/07/02 04:12:19;;;;;;;8.25;5.88;;;;;11.90;93735.00;;;;7394417;19;20149;-75
2023/07/02 04:14:54;;;;;;;14.20;6.60;;;;;12.00;93744.00;;;;7396116;19;20139;-75
2023/07/02 04:17:29;;;;;;;8.82;5.43;;;;;12.00;93746.00;;;;7393231;19;20579;-75
2023/07/02 04:19:59;;;;;;;10.23;5.35;;;;;12.00;93750.00;;;;7393529;19;20592;-76
2023/07/02 04:22:27;;;;;;;13.45;5.93;;;;;12.00;93753.00;;;;7396972;19;20137;-74
2023/07/02 04:25:08;;;;;;;13.85;5.82;;;;;12.00;93749.00;;;;7395909;19;20129;-75
2023/07/02 04:28:03;;;;;;;14.85;5.43;;;;;11.90;93750.00;;;;7397284;19;20207;-75
2023/07/02 04:30:38;;;;;;;9.32;5.70;;;;;12.00;93757.00;;;;7402524;19;20148;-75
2023/07/02 04:33:14;;;;;;;13.90;5.70;;;;;12.20;93757.00;;;;7401413;19;20452;-77
2023/07/02 04:35:41;;;;;;;15.55;6.85;;;;;12.30;93755.00;;;;7402307;19;20193;-77
2023/07/02 04:38:17;;;;;;;15.23;6.53;;;;;12.30;93759.00;;;;7398961;19;20976;-75
2023/07/02 04:40:45;;;;;;;18.08;6.72;;;;;12.30;93761.00;;;;7401193;19;20152;-75
2023/07/02 04:43:19;;;;;;;11.00;6.43;;;;;12.30;93757.00;;;;7402011;19;20478;-76
2023/07/02 04:45:48;;;;;;;18.92;7.78;;;;;12.40;93757.00;;;;7399909;19;20149;-74
2023/07/02 04:48:22;;;;;;;13.98;7.18;;;;;12.30;93764.00;;;;7402026;19;20133;-74
2023/07/02 04:50:50;;;;;;;16.95;7.65;;;;;12.30;93758.00;;;;7400866;19;20561;-73
2023/07/02 04:53:18;;;;;;;16.23;8.15;;;;;12.30;93758.00;;;;7401163;19;20485;-76
2023/07/02 04:55:52;;;;;;;11.30;7.03;;;;;12.40;93763.00;;;;7401901;19;20157;-73
2023/07/02 04:58:27;;;;;;;17.45;7.57;;;;;12.40;93754.00;;;;7398236;19;20502;-74
2023/07/02 05:00:55;;;;;;;13.05;7.60;;;;;12.30;93757.00;;;;7399682;19;20185;-75
2023/07/02 05:03:32;;;;;;;19.13;7.60;;;;;12.30;93765.00;;;;7398108;19;20148;-73
2023/07/02 05:06:14;;;;;;;15.27;7.40;;;;;12.60;93764.00;;;;7397050;19;20183;-74
2023/07/02 05:08:42;;;;;;;10.93;6.95;;;;;12.50;93762.00;;;;7399811;19;20152;-74
2023/07/02 05:11:17;;;;;;;14.20;7.43;;;;;12.70;93711.00;;;;7401096;19;20144;-73
2023/07/02 05:13:45;;;;;;;14.60;7.38;;;;;12.80;93763.00;;;;7398404;19;20161;-74
2023/07/02 05:16:19;;;;;;;14.88;7.70;;;;;12.90;93767.00;;;;7399681;19;20170;-74
2023/07/02 05:18:53;;;;;;;13.05;8.23;;;;;13.10;93766.00;;;;7397941;19;20184;-73
2023/07/02 05:21:27;;;;;;;15.15;7.40;;;;;13.00;93775.00;;;;7399085;19;20159;-74
2023/07/02 05:23:55;;;;;;;17.33;8.20;;;;;12.90;93765.00;;;;7399955;19;20136;-74
2023/07/02 05:26:30;;;;;;;14.75;7.25;;;;;13.20;93769.00;;;;7388105;19;21027;-76
2023/07/02 05:28:58;;;;;;;15.57;8.18;;;;;13.50;93789.00;;;;7379197;19;20313;-77
2023/07/02 05:31:27;;;;;;;20.10;8.02;;;;;13.30;93782.00;;;;7388269;19;20149;-75
2023/07/02 05:34:01;;;;;;;15.18;7.43;;;;;13.10;93762.00;;;;7388509;19;20137;-76
2023/07/02 05:36:29;;;;;;;15.93;7.53;;;;;13.30;93780.00;;;;7386668;19;20156;-74
2023/07/02 05:39:04;;;;;;;15.80;7.97;;;;;13.40;93771.00;;;;7390972;19;20157;-74
2023/07/02 05:41:40;;;;;;;12.70;7.68;;;;;13.60;93774.00;;;;7389581;19;20148;-75
2023/07/02 05:44:26;;;;;;;14.05;7.55;;;;;13.10;93760.00;;;;7390033;19;20155;-73
2023/07/02 05:47:02;;;;;;;16.92;8.50;;;;;13.20;93773.00;;;;7387989;19;20659;-73
2023/07/02 05:49:36;;;;;;;14.13;7.75;;;;;13.10;93780.00;;;;7386797;19;20165;-73
2023/07/02 05:52:05;;;;;;;16.65;8.15;;;;;13.50;93774.00;;;;7386470;19;20163;-74
2023/07/02 05:54:40;;;;;;;18.48;8.63;;;;;13.80;93774.00;;;;7387106;19;20156;-75
2023/07/02 05:57:15;;;;;;;17.17;7.90;;;;;13.40;93771.00;;;;7388445;19;20140;-73
2023/07/02 05:59:51;;;;;;;13.20;7.50;;;;;13.80;93781.00;;;;7387858;19;20148;-74
2023/07/02 06:02:18;;;;;;;19.63;7.78;;;;;13.90;93780.00;;;;7382626;19;20186;-73
2023/07/02 06:05:01;;;;;;;17.60;7.63;;;;;13.80;93789.00;;;;7386173;19;20176;-73
2023/07/02 06:07:36;;;;;;;15.38;8.13;;;;;14.20;93787.00;;;;7387681;19;20158;-72
2023/07/02 06:10:11;;;;;;;15.13;8.25;;;;;14.50;93795.00;;;;7383922;19;20172;-74
2023/07/02 06:12:45;;;;;;;16.85;8.07;;;;;15.00;93794.00;;;;7387384;19;20152;-76
2023/07/02 06:15:19;;;;;;;18.60;9.05;;;;;14.60;93789.00;;;;7386963;19;20160;-75
2023/07/02 06:17:53;;;;;;;16.10;9.30;;;;;15.00;93791.00;;;;7388589;19;20484;-74
2023/07/02 06:20:21;;;;;;;15.27;8.40;;;;;15.50;93796.00;;;;7385046;19;20584;-74
2023/07/02 06:22:55;;;;;;;23.70;9.60;;;;;15.50;93796.00;;;;7387357;19;20234;-75
2023/07/02 06:25:29;;;;;;;19.35;8.30;;;;;15.00;93791.00;;;;7386731;19;20476;-75
2023/07/02 06:27:58;;;;;;;21.15;9.95;;;;;15.10;93794.00;;;;7386607;19;20133;-74
2023/07/02 06:30:32;;;;;;;19.85;9.27;;;;;14.90;93811.00;;;;7385483;19;20215;-74
2023/07/02 06:33:00;;;;;;;22.92;9.80;;;;;15.20;93800.00;;;;7386335;19;20128;-73
2023/07/02 06:35:37;;;;;;;20.48;9.50;;;;;14.80;93807.00;;;;7387955;19;20165;-75
2023/07/02 06:38:05;;;;;;;20.02;10.30;;;;;14.60;93802.00;;;;7386595;19;20149;-74
2023/07/02 06:40:33;;;;;;;19.27;10.00;;;;;14.40;93818.00;;;;7384773;19;20157;-75
2023/07/02 06:43:07;;;;;;;17.63;10.63;;;;;14.80;93806.00;;;;7386325;19;20167;-76
2023/07/02 06:45:42;;;;;;;17.08;9.30;;;;;14.70;93813.00;;;;7386015;19;20502;-76
2023/07/02 06:48:17;;;;;;;16.55;9.38;;;;;14.50;93820.00;;;;7386648;19;20488;-78
2023/07/02 06:50:45;;;;;;;18.63;9.93;;;;;15.10;93813.00;;;;7385006;19;20153;-77
2023/07/02 06:53:21;;;;;;;17.75;9.90;;;;;15.40;93820.00;;;;7389489;19;20666;-79
2023/07/02 06:55:48;;;;;;;21.25;10.20;;;;;15.20;93809.00;;;;7386921;19;20173;-76
2023/07/02 06:58:17;;;;;;;15.93;9.55;;;;;15.20;93827.00;;;;7386630;19;20885;-78
2023/07/02 07:00:51;;;;;;;20.23;9.90;;;;;15.40;93817.00;;;;7386514;19;20179;-77
2023/07/02 07:03:19;;;;;;;19.17;10.35;;;;;15.60;93806.00;;;;7382274;19;20128;-76
2023/07/02 07:05:59;;;;;;;21.55;10.02;;;;;15.90;93813.00;;;;7383622;19;20188;-78
2023/07/02 07:08:27;;;;;;;18.27;10.02;;;;;15.70;93814.00;;;;7384839;19;20160;-75
2023/07/02 07:11:03;;;;;;;19.73;9.82;;;;;15.60;93821.00;;;;7386617;19;20172;-76
2023/07/02 07:13:31;;;;;;;17.92;9.43;;;;;15.20;93815.00;;;;7389069;19;20212;-77
2023/07/02 07:16:05;;;;;;;19.48;10.57;;;;;15.60;93814.00;;;;7388811;19;20144;-77
2023/07/02 07:18:51;;;;;;;18.45;9.73;;;;;15.20;93817.00;;;;7383329;19;20208;-75
2023/07/02 07:21:26;;;;;;;19.55;9.30;;;;;15.30;93811.00;;;;7384691;19;20134;-77
2023/07/02 07:23:54;;;;;;;20.02;10.10;;;;;15.60;93818.00;;;;7386543;19;20156;-78
2023/07/02 07:26:29;;;;;;;17.85;11.30;;;;;16.10;93810.00;;;;7386349;19;20607;-76
2023/07/02 07:29:04;;;;;;;18.77;10.65;;;;;15.60;93821.00;;;;7386452;19;20145;-78
2023/07/02 07:31:39;;;;;;;17.65;10.10;;;;;16.10;93831.00;;;;7386228;19;20175;-76
2023/07/02 07:34:13;;;;;;;16.80;10.57;;;;;16.10;93817.00;;;;7383355;19;20156;-76
2023/07/02 07:36:43;;;;;;;17.67;10.52;;;;;16.60;93842.00;;;;7385104;19;20592;-76
2023/07/02 07:39:17;;;;;;;15.63;10.68;;;;;17.00;93836.00;;;;7384632;19;20148;-77
2023/07/02 07:41:51;;;;;;;19.60;10.55;;;;;18.00;93841.00;;;;7385300;19;20584;-76
2023/07/02 07:44:28;;;;;;;20.92;11.02;;;;;17.70;93845.00;;;;7385245;19;20155;-82
2023/07/02 07:46:57;;;;;;;24.60;11.57;;;;;16.80;93824.00;;;;7384892;19;20166;-77
2023/07/02 07:49:37;;;;;;;26.60;12.15;;;;;17.00;93829.00;;;;7384287;19;20209;-77
2023/07/02 07:52:07;;;;;;;19.25;11.07;;;;;17.30;93824.00;;;;7384027;19;20160;-78
2023/07/02 07:54:41;;;;;;;17.35;10.73;;;;;17.50;93833.00;;;;7385604;19;21226;-79
2023/07/02 07:57:09;;;;;;;25.67;11.52;;;;;17.70;93828.00;;;;7386616;19;20598;-80
2023/07/02 07:59:46;;;;;;;21.70;11.60;;;;;17.10;93847.00;;;;7385288;19;20140;-80
2023/07/02 08:02:22;;;;;;;23.85;12.65;;;;;16.60;93813.00;;;;7382483;19;20183;-78
2023/07/02 08:05:03;;;;;;;27.00;11.80;;;;;17.30;93841.00;;;;7389112;19;20205;-75
2023/07/02 08:07:40;;;;;;;30.92;12.18;;;;;16.90;93845.00;;;;7390343;19;20159;-76
2023/07/02 08:10:10;;;;;;;22.40;11.65;;;;;16.80;93833.00;;;;7392451;19;20208;-74
2023/07/02 08:12:48;;;;;;;20.75;12.15;;;;;17.00;93829.00;;;;7389886;19;20164;-74
2023/07/02 08:15:15;;;;;;;23.90;11.85;;;;;17.20;93833.00;;;;7390220;19;20156;-74
2023/07/02 08:17:58;;;;;;;28.23;12.68;;;;;17.40;93816.00;;;;7389209;19;20650;-76
2023/07/02 08:20:32;;;;;;;23.20;12.27;;;;;17.90;93827.00;;;;7392437;19;20588;-73
2023/07/02 08:23:07;;;;;;;18.10;12.02;;;;;17.70;93822.00;;;;7390144;19;20135;-73
2023/07/02 08:25:41;;;;;;;22.33;12.57;;;;;17.60;93833.00;;;;7389895;19;20152;-75
2023/07/02 08:28:09;;;;;;;21.17;12.15;;;;;17.70;93815.00;;;;7390895;19;20160;-75
2023/07/02 08:30:43;;;;;;;22.23;12.85;;;;;17.20;93822.00;;;;7390976;19;20148;-75
2023/07/02 08:33:11;;;;;;;23.13;12.63;;;;;17.50;93838.00;;;;7390011;19;20216;-73
2023/07/02 08:35:46;;;;;;;22.80;13.35;;;;;17.30;93840.00;;;;7392990;19;20128;-74
2023/07/02 08:38:15;;;;;;;21.25;12.43;;;;;18.10;93835.00;;;;7388454;19;20159;-78
2023/07/02 08:40:52;;;;;;;25.90;13.20;;;;;17.90;93817.00;;;;7385675;19;20165;-77
2023/07/02 08:43:21;;;;;;;21.80;11.80;;;;;18.00;93824.00;;;;7388199;19;20177;-75
2023/07/02 08:45:55;;;;;;;19.90;12.75;;;;;17.80;93830.00;;;;7389104;19;21473;-75
2023/07/02 08:48:26;;;;;;;22.25;11.70;;;;;18.00;93822.00;;;;7387010;19;20184;-75
2023/07/02 08:51:00;;;;;;;18.42;11.70;;;;;17.40;93831.00;;;;7387294;19;20602;-74
2023/07/02 08:53:33;;;;;;;24.73;12.10;;;;;18.00;93829.00;;;;7387213;19;20203;-77
2023/07/02 08:56:07;;;;;;;19.92;11.60;;;;;18.30;93825.00;;;;7389269;19;20587;-76
2023/07/02 08:58:42;;;;;;;26.17;12.60;;;;;17.80;93826.00;;;;7388812;19;20610;-74
2023/07/02 09:01:15;;;;;;;21.65;12.40;;;;;18.00;93805.00;;;;7390108;19;20156;-75
2023/07/02 09:03:50;;;;;;;22.83;11.80;;;;;19.00;93840.00;;;;7390809;19;20151;-79
2023/07/02 09:06:30;;;;;;;19.60;11.85;;;;;18.60;93838.00;;;;7388946;19;20512;-76
2023/07/02 09:09:05;;;;;;;21.58;11.27;;;;;18.40;93847.00;;;;7389166;19;20133;-78
2023/07/02 09:11:51;;;;;;;21.52;12.32;;;;;17.60;93853.00;;;;7388425;19;20259;-78
2023/07/02 09:14:31;;;;;;;22.60;12.85;;;;;17.40;93858.00;;;;7388469;19;20132;-79
2023/07/02 09:17:10;;;;;;;20.95;11.18;;;;;18.20;93825.00;;;;7388234;19;20189;-75
2023/07/02 09:19:51;;;;;;;21.02;12.10;;;;;17.80;93854.00;;;;7388734;19;20149;-75
2023/07/02 09:22:26;;;;;;;17.35;11.82;;;;;17.20;93870.00;;;;7390058;19;20139;-76
2023/07/02 09:24:57;;;;;;;20.15;11.25;;;;;17.10;93863.00;;;;7387867;19;20156;-77
2023/07/02 09:27:42;;;;;;;16.88;10.80;;;;;17.40;93869.00;;;;7387589;19;20162;-77
2023/07/02 09:30:16;;;;;;;22.38;11.52;;;;;16.90;93877.00;;;;7388910;19;20544;-74
2023/07/02 09:32:45;;;;;;;21.48;11.32;;;;;17.20;93864.00;;;;7389578;19;20603;-76
2023/07/02 09:35:19;;;;;;;20.58;11.90;;;;;18.20;93868.00;;;;7388160;19;20160;-73
2023/07/02 09:37:54;;;;;;;20.20;11.13;;;;;17.90;93840.00;;;;7385492;19;20156;-78
2023/07/02 09:40:30;;;;;;;20.40;11.95;;;;;18.90;93823.00;;;;7387008;19;20625;-74
2023/07/02 09:43:06;;;;;;;22.05;12.20;;;;;19.50;93822.00;;;;7387916;19;20136;-75
2023/07/02 09:45:56;;;;;;;15.68;11.15;;;;;20.70;93814.00;;;;7390324;19;20152;-74
2023/07/02 09:48:49;;;;;;;17.58;10.98;;;;;21.20;93815.00;;;;7387081;19;20273;-78
2023/07/02 09:51:37;;;;;;;17.55;11.80;;;;;22.10;93804.00;;;;7388075;19;20149;-77
2023/07/02 09:54:12;;;;;;;21.25;12.68;;;;;22.30;93821.00;;;;7388691;19;20498;-78
2023/07/02 09:56:40;;;;;;;19.60;11.40;;;;;20.50;93796.00;;;;7388944;19;20155;-81
2023/07/02 09:59:14;;;;;;;19.85;12.30;;;;;20.70;93827.00;;;;7387778;19;20148;-79
2023/07/02 10:01:49;;;;;;;18.38;11.35;;;;;20.90;93809.00;;;;7385958;19;20169;-76
2023/07/02 10:04:24;;;;;;;18.83;11.45;;;;;20.70;93808.00;;;;7384826;19;20175;-78
2023/07/02 10:07:06;;;;;;;17.42;11.63;;;;;20.00;93837.00;;;;7385069;19;20529;-74
2023/07/02 10:09:46;;;;;;;17.00;11.35;;;;;19.40;93847.00;;;;7386938;19;20208;-79
2023/07/02 10:12:25;;;;;;;20.48;11.65;;;;;19.40;93851.00;;;;7388445;19;20133;-74
2023/07/02 10:14:59;;;;;;;16.77;11.40;;;;;19.00;93842.00;;;;7385098;19;20739;-76
2023/07/02 10:17:37;;;;;;;16.52;10.73;;;;;19.40;93852.00;;;;7384472;19;20128;-75
2023/07/02 10:20:13;;;;;;;17.73;11.00;;;;;19.00;93858.00;;;;7387906;19;20463;-77
2023/07/02 10:22:52;;;;;;;18.35;11.50;;;;;18.70;93853.00;;;;7385073;19;20169;-74
2023/07/02 10:25:29;;;;;;;18.55;11.32;;;;;19.20;93822.00;;;;7383620;19;20608;-76
2023/07/02 10:27:59;;;;;;;23.30;11.68;;;;;20.20;93864.00;;;;7385556;19;20140;-76
2023/07/02 10:30:38;;;;;;;24.48;11.98;;;;;20.30;93867.00;;;;7385981;19;20519;-74
2023/07/02 10:33:15;;;;;;;19.90;10.75;;;;;20.40;93824.00;;;;7386592;19;20129;-76
2023/07/02 10:35:50;;;;;;;23.17;11.95;;;;;20.80;93817.00;;;;7385414;19;20144;-74
2023/07/02 10:38:21;;;;;;;21.67;11.35;;;;;21.20;93822.00;;;;7385628;19;20591;-75
2023/07/02 10:41:00;;;;;;;19.15;12.60;;;;;21.80;93858.00;;;;7385315;19;20139;-76
2023/07/02 10:43:31;;;;;;;21.23;12.40;;;;;20.30;93850.00;;;;7386484;19;20603;-76
2023/07/02 10:46:06;;;;;;;18.13;12.13;;;;;19.60;93856.00;;;;7383566;19;20599;-81
2023/07/02 10:48:35;;;;;;;20.85;12.35;;;;;19.40;93857.00;;;;7383981;19;20148;-76
2023/07/02 10:51:13;;;;;;;18.63;12.20;;;;;19.90;93846.00;;;;7384899;19;20125;-72
2023/07/02 10:53:58;;;;;;;22.60;12.75;;;;;20.90;93828.00;;;;7385048;19;20141;-74
2023/07/02 10:56:33;;;;;;;22.35;12.85;;;;;21.30;93817.00;;;;7385232;19;20615;-76
2023/07/02 10:59:03;;;;;;;21.85;12.25;;;;;22.30;93820.00;;;;7383963;19;20160;-74
2023/07/02 11:01:37;;;;;;;18.40;12.38;;;;;22.40;93818.00;;;;7384083;19;20481;-76
2023/07/02 11:04:07;;;;;;;19.40;12.52;;;;;22.10;93822.00;;;;7383951;19;20160;-76
2023/07/02 11:06:53;;;;;;;21.17;12.50;;;;;21.50;93853.00;;;;7383705;19;20176;-77
2023/07/02 11:09:22;;;;;;;21.20;12.35;;;;;21.10;93868.00;;;;7385794;19;20149;-76
2023/07/02 11:12:00;;;;;;;18.77;11.90;;;;;21.10;93824.00;;;;7384498;19;20148;-75
2023/07/02 11:14:36;;;;;;;22.05;12.35;;;;;22.30;93826.00;;;;7385433;19;20523;-78
2023/07/02 11:17:11;;;;;;;21.30;12.50;;;;;22.90;93830.00;;;;7384580;19;20129;-74
2023/07/02 11:19:40;;;;;;;21.75;12.65;;;;;22.30;93854.00;;;;7383700;19;20507;-77
2023/07/02 11:22:14;;;;;;;18.77;11.70;;;;;21.60;93813.00;;;;7384038;19;20148;-77
2023/07/02 11:24:45;;;;;;;20.70;12.88;;;;;21.30;93852.00;;;;7385995;19;20141;-76
2023/07/02 11:27:23;;;;;;;16.73;11.40;;;;;22.10;93822.00;;;;7385440;19;20178;-76
2023/07/02 11:30:00;;;;;;;18.23;11.35;;;;;23.00;93819.00;;;;7384833;19;20507;-78
2023/07/02 11:32:54;;;;;;;17.65;12.48;;;;;22.90;93858.00;;;;7386044;19;20133;-77
2023/07/02 11:35:36;;;;;;;21.20;12.27;;;;;22.70;93869.00;;;;7385387;19;20595;-77
2023/07/02 11:38:10;;;;;;;17.73;11.57;;;;;22.10;93817.00;;;;7390982;19;20137;-79
2023/07/02 11:40:38;;;;;;;20.88;12.48;;;;;22.90;93812.00;;;;7392347;19;20553;-73
2023/07/02 11:43:13;;;;;;;19.23;12.13;;;;;22.70;93853.00;;;;7392290;19;20133;-74
2023/07/02 11:45:41;;;;;;;20.70;12.40;;;;;22.00;93849.00;;;;7391029;19;20587;-77
2023/07/02 11:48:18;;;;;;;19.45;12.45;;;;;22.30;93843.00;;;;7390131;19;20163;-73
2023/07/02 11:50:52;;;;;;;19.40;11.48;;;;;22.20;93836.00;;;;7390502;19;20132;-73
2023/07/02 11:53:20;;;;;;;20.40;12.45;;;;;23.20;93854.00;;;;7391185;19;20470;-74
2023/07/02 11:55:55;;;;;;;19.88;12.55;;;;;23.00;93819.00;;;;7389460;19;20169;-73
2023/07/02 11:58:23;;;;;;;17.73;12.65;;;;;23.10;93821.00;;;;7389798;19;20166;-72
2023/07/02 12:00:57;;;;;;;22.70;12.43;;;;;23.60;93817.00;;;;7389131;19;20211;-74
2023/07/02 12:03:25;;;;;;;18.55;12.57;;;;;24.10;93811.00;;;;7388052;19;20208;-75
2023/07/02 12:06:01;;;;;;;19.85;13.05;;;;;23.80;93811.00;;;;7387268;19;20179;-76
2023/07/02 12:08:36;;;;;;;16.45;11.45;;;;;24.40;93811.00;;;;7389158;19;20264;-75
2023/07/02 12:11:08;;;;;;;18.77;12.43;;;;;24.00;93824.00;;;;7389822;19;20144;-74
2023/07/02 12:13:41;;;;;;;20.42;11.88;;;;;23.60;93816.00;;;;7388907;19;20153;-75
2023/07/02 12:16:09;;;;;;;18.77;12.85;;;;;23.30;93818.00;;;;7390973;19;20148;-75
2023/07/02 12:18:45;;;;;;;16.50;12.25;;;;;22.40;93818.00;;;;7391264;19;21067;-79
2023/07/02 12:21:20;;;;;;;20.42;13.38;;;;;23.80;93808.00;;;;7388049;19;20152;-77
2023/07/02 12:23:49;;;;;;;17.13;12.57;;;;;25.20;93847.00;;;;7391801;19;20133;-73
2023/07/02 12:26:23;;;;;;;19.52;11.77;;;;;23.50;93834.00;;;;7391711;19;20125;-74
2023/07/02 12:28:51;;;;;;;21.02;12.70;;;;;24.70;93810.00;;;;7389413;19;20148;-73
2023/07/02 12:31:25;;;;;;;18.52;11.60;;;;;24.10;93838.00;;;;7389441;19;20150;-75
2023/07/02 12:33:53;;;;;;;18.02;12.05;;;;;24.30;93821.00;;;;7392054;19;20129;-76
2023/07/02 12:36:29;;;;;;;19.92;11.75;;;;;24.60;93813.00;;;;7390250;19;20124;-75
2023/07/02 12:39:02;;;;;;;19.83;11.95;;;;;24.80;93813.00;;;;7390151;19;20149;-74